Time;durP1;ratioP1;P1;durP2;ratioP2;P2;SDS_P1;SDS_P2;PMS_P1;PMS_P2;Temp;Humidity;BMP_temperature;BMP_pressure;BME280_temperature;BME280_humidity;BME280_pressure;Samples;Min_cycle;Max_cycle;Signal;HPM_P1;HPM_P2
2022/07/17 00:00:58;;;;;;;12.33;7.40;;;;;;;11.26;71.19;99472.28;1362123;85;81954;-72
2022/07/17 00:02:59;;;;;;;8.35;7.58;;;;;;;11.27;71.20;99477.08;1374020;84;21592;-70
2022/07/17 00:05:00;;;;;;;14.80;7.90;;;;;;;11.25;71.28;99481.11;1376427;84;80727;-71
2022/07/17 00:07:01;;;;;;;11.50;9.18;;;;;;;11.25;71.32;99479.31;1380500;84;21041;-71
2022/07/17 00:09:03;;;;;;;11.78;9.18;;;;;;;11.24;71.37;99478.06;1376852;84;20982;-70
2022/07/17 00:11:04;;;;;;;12.85;9.70;;;;;;;11.22;71.42;99475.50;1375053;84;80922;-71
2022/07/17 00:13:06;;;;;;;11.80;9.78;;;;;;;11.23;71.47;99481.66;1377367;84;21053;-71
2022/07/17 00:15:07;;;;;;;14.70;10.50;;;;;;;11.21;71.47;99476.88;1377487;84;80943;-71
2022/07/17 00:17:08;;;;;;;13.75;11.33;;;;;;;11.18;71.56;99481.83;1378836;83;21126;-71
2022/07/17 00:19:09;;;;;;;;;;;;;;;11.15;71.62;99483.76;1383302;84;21091;-71
2022/07/17 00:21:10;;;;;;;21.73;13.50;;;;;;;11.13;71.80;99485.59;1373455;84;68094;-70
2022/07/17 00:23:11;;;;;;;28.27;12.73;;;;;;;11.07;71.87;99482.27;1375691;84;21077;-71
2022/07/17 00:25:13;;;;;;;19.82;13.72;;;;;;;11.06;71.97;99478.39;1377531;84;81209;-70
2022/07/17 00:27:14;;;;;;;22.87;13.25;;;;;;;11.03;72.00;99479.38;1374365;84;21505;-70
2022/07/17 00:29:16;;;;;;;18.70;14.80;;;;;;;11.02;72.11;99484.72;1378168;84;21053;-70
2022/07/17 00:31:17;;;;;;;25.30;16.00;;;;;;;11.01;72.18;99492.25;1361343;84;81261;-72
2022/07/17 00:33:18;;;;;;;32.80;16.10;;;;;;;11.02;72.32;99494.83;1362131;85;21508;-72
2022/07/17 00:35:18;;;;;;;;;;;;;;;11.03;72.34;99494.35;1379585;84;81903;-71
2022/07/17 00:37:19;;;;;;;26.77;17.32;;;;;;;11.03;72.52;99492.56;1379849;84;20611;-71
2022/07/17 00:39:21;;;;;;;25.82;18.67;;;;;;;11.04;72.55;99497.39;1378828;84;21500;-71
2022/07/17 00:41:21;;;;;;;;;;;;;;;11.04;72.59;99496.92;1376910;84;81172;-70
2022/07/17 00:43:23;;;;;;;27.40;19.10;;;;;;;11.06;72.74;99498.17;1378932;83;20147;-71
2022/07/17 00:45:24;;;;;;;31.10;21.17;;;;;;;11.06;72.69;99503.01;1377087;84;81107;-71
2022/07/17 00:47:26;;;;;;;29.57;21.30;;;;;;;11.07;72.72;99501.22;1379208;84;21053;-71
2022/07/17 00:49:27;;;;;;;;;;;;;;;11.08;72.73;99497.66;1381307;83;21548;-71
2022/07/17 00:51:28;;;;;;;26.27;19.05;;;;;;;11.09;72.88;99503.34;1373036;84;67098;-71
2022/07/17 00:53:33;;;;;;;29.18;18.92;;;;;;;11.09;72.85;99500.70;1384824;83;21052;-71
2022/07/17 00:55:35;;;;;;;27.55;19.12;;;;;;;11.08;72.81;99505.11;1393108;81;81775;-71
2022/07/17 00:57:37;;;;;;;24.82;18.10;;;;;;;11.08;72.82;99496.34;1393609;83;21000;-71
2022/07/17 00:59:39;;;;;;;26.70;16.85;;;;;;;11.08;72.87;99498.98;1395898;82;82035;-70
2022/07/17 01:01:40;;;;;;;25.15;16.32;;;;;;;11.07;72.91;99495.47;1380678;83;21023;-71
2022/07/17 01:03:41;;;;;;;23.10;15.68;;;;;;;11.06;72.92;99504.33;1393465;83;21060;-71
2022/07/17 01:05:43;;;;;;;19.23;14.85;;;;;;;11.04;72.94;99498.23;1392980;82;81943;-72
2022/07/17 01:07:44;;;;;;;22.00;16.17;;;;;;;11.06;72.97;99497.73;1397670;82;21071;-71
2022/07/17 01:09:45;;;;;;;;;;;;;;;11.06;73.03;99505.64;1397952;82;81310;-71
2022/07/17 01:11:47;;;;;;;19.37;13.98;;;;;;;11.04;73.15;99504.84;1396789;82;20319;-72
2022/07/17 01:13:49;;;;;;;17.37;15.48;;;;;;;11.04;73.09;99505.30;1395653;82;21579;-72
2022/07/17 01:15:50;;;;;;;16.17;14.30;;;;;;;11.04;73.10;99504.84;1393805;83;81797;-72
2022/07/17 01:17:51;;;;;;;17.35;13.30;;;;;;;11.03;73.11;99502.27;1394122;83;22143;-71
2022/07/17 01:19:53;;;;;;;20.00;13.62;;;;;;;11.03;73.08;99504.42;1395014;82;82017;-71
2022/07/17 01:21:54;;;;;;;21.70;13.93;;;;;;;11.03;73.12;99503.11;1397335;81;21725;-72
2022/07/17 01:23:55;;;;;;;15.58;13.00;;;;;;;11.02;73.13;99501.42;1393022;82;21140;-71
2022/07/17 01:25:56;;;;;;;17.45;13.22;;;;;;;11.02;73.14;99490.87;1396232;82;82051;-71
2022/07/17 01:27:57;;;;;;;15.95;13.15;;;;;;;11.01;73.15;99502.33;1398064;83;21115;-71
2022/07/17 01:29:59;;;;;;;20.72;14.10;;;;;;;11.01;73.18;99504.13;1397489;82;81245;-71
2022/07/17 01:31:59;;;;;;;;;;;;;;;11.01;73.21;99503.65;1398561;82;21012;-72
2022/07/17 01:34:02;;;;;;;14.90;13.30;;;;;;;11.00;73.32;99505.88;1396103;82;20249;-73
2022/07/17 01:36:03;;;;;;;14.68;13.18;;;;;;;10.98;73.27;99504.23;1395561;83;82044;-72
2022/07/17 01:38:04;;;;;;;15.40;13.70;;;;;;;10.98;73.24;99505.55;1400523;82;21032;-72
2022/07/17 01:40:07;;;;;;;17.98;13.88;;;;;;;10.95;73.22;99501.28;1395161;82;82519;-71
2022/07/17 01:42:08;;;;;;;19.48;14.43;;;;;;;10.94;73.24;99496.92;1395841;83;21873;-71
2022/07/17 01:44:09;;;;;;;15.50;13.83;;;;;;;10.94;73.27;99502.20;1395392;82;21083;-70
2022/07/17 01:46:10;;;;;;;17.77;14.68;;;;;;;10.93;73.25;99502.27;1395550;83;81065;-71
2022/07/17 01:48:11;;;;;;;20.43;15.10;;;;;;;10.92;73.30;99498.75;1394843;82;21060;-71
2022/07/17 01:50:13;;;;;;;;;;;;;;;10.90;73.34;99503.24;1398163;82;81142;-72
2022/07/17 01:52:14;;;;;;;19.15;14.55;;;;;;;10.88;73.46;99501.11;1393262;82;20618;-72
2022/07/17 01:54:15;;;;;;;18.30;15.28;;;;;;;10.84;73.45;99499.08;1378447;84;21045;-72
2022/07/17 01:56:17;;;;;;;20.62;15.88;;;;;;;10.82;73.43;99501.38;1373677;83;81254;-71
2022/07/17 01:58:18;;;;;;;21.60;16.70;;;;;;;10.80;73.47;99504.08;1378257;84;21036;-72
2022/07/17 02:00:20;;;;;;;;;;;;;;;10.79;73.50;99498.87;1375902;84;81791;-70
2022/07/17 02:02:21;;;;;;;24.27;15.95;;;;;;;10.77;73.63;99498.06;1381360;84;20143;-71
2022/07/17 02:04:22;;;;;;;23.62;16.40;;;;;;;10.73;73.58;99502.15;1380882;83;21029;-70
2022/07/17 02:06:23;;;;;;;;;;;;;;;10.73;73.62;99501.30;1380300;84;81475;-72
2022/07/17 02:08:24;;;;;;;21.15;16.50;;;;;;;10.69;73.74;99503.19;1378600;83;20161;-71
2022/07/17 02:10:25;;;;;;;;;;;;;;;10.67;73.69;99499.74;1383309;83;82223;-70
2022/07/17 02:12:26;;;;;;;;;;;;;;;10.67;73.78;99504.17;1382174;84;21153;-71
2022/07/17 02:14:27;;;;;;;24.15;16.32;;;;;;;10.64;73.85;99499.88;1379901;84;20155;-71
2022/07/17 02:16:28;;;;;;;20.43;16.37;;;;;;;10.63;73.79;99503.42;1378341;84;81567;-72
2022/07/17 02:18:29;;;;;;;20.45;16.37;;;;;;;10.62;73.80;99499.53;1374284;84;21631;-71
2022/07/17 02:20:31;;;;;;;22.95;17.70;;;;;;;10.61;73.84;99507.06;1374717;84;81110;-70
2022/07/17 02:22:31;;;;;;;;;;;;;;;10.58;73.85;99510.67;1379223;84;21104;-71
2022/07/17 02:24:33;;;;;;;25.77;17.15;;;;;;;10.56;73.96;99512.06;1378698;84;20182;-72
2022/07/17 02:26:34;;;;;;;24.77;17.62;;;;;;;10.54;73.96;99510.40;1379106;84;80915;-71
2022/07/17 02:28:35;;;;;;;24.37;17.23;;;;;;;10.54;73.98;99507.29;1376209;84;21584;-72
2022/07/17 02:30:37;;;;;;;22.65;17.50;;;;;;;10.53;73.98;99509.52;1373906;84;81729;-72
2022/07/17 02:32:38;;;;;;;;;;;;;;;10.54;73.99;99506.44;1381177;84;21631;-71
2022/07/17 02:34:39;;;;;;;25.77;17.92;;;;;;;10.55;74.09;99508.17;1378664;83;67282;-71
2022/07/17 02:36:40;;;;;;;27.95;17.87;;;;;;;10.54;74.07;99506.44;1378706;84;21520;-72
2022/07/17 02:38:41;;;;;;;27.00;18.80;;;;;;;10.55;74.06;99502.89;1381466;82;21096;-71
2022/07/17 02:40:42;;;;;;;29.72;17.27;;;;;;;10.55;74.06;99508.17;1375195;83;81898;-71
2022/07/17 02:42:43;;;;;;;;;;;;;;;10.56;74.08;99512.50;1378085;84;20997;-71
2022/07/17 02:44:45;;;;;;;24.50;17.27;;;;;;;10.54;74.25;99513.03;1373614;84;67439;-71
2022/07/17 02:46:46;;;;;;;30.27;18.48;;;;;;;10.54;74.23;99509.08;1378769;84;21045;-72
2022/07/17 02:48:47;;;;;;;24.57;18.12;;;;;;;10.55;74.26;99505.53;1374103;84;21572;-70
2022/07/17 02:50:48;;;;;;;29.50;18.85;;;;;;;10.54;74.29;99513.03;1381148;84;82004;-72
2022/07/17 02:52:49;;;;;;;28.80;19.55;;;;;;;10.53;74.31;99512.63;1364043;85;21792;-71
2022/07/17 02:54:50;;;;;;;;;;;;;;;10.53;74.34;99510.84;1379533;84;82091;-71
2022/07/17 02:56:51;;;;;;;27.80;19.57;;;;;;;10.54;74.48;99515.20;1375571;84;20151;-71
2022/07/17 02:58:52;;;;;;;23.65;18.60;;;;;;;10.53;74.47;99509.99;1380577;83;21018;-71
2022/07/17 03:00:53;;;;;;;31.65;18.62;;;;;;;10.54;74.46;99515.20;1375508;84;81018;-71
2022/07/17 03:02:55;;;;;;;;;;;;;;;10.55;74.46;99513.44;1380120;83;21032;-73
2022/07/17 03:04:56;;;;;;;26.40;17.52;;;;;;;10.55;74.59;99517.39;1375100;83;67872;-71
2022/07/17 03:06:57;;;;;;;;;;;;;;;10.53;74.54;99520.53;1380526;84;21021;-72
2022/07/17 03:08:58;;;;;;;21.95;16.52;;;;;;;10.52;74.66;99517.48;1379775;84;20225;-71
2022/07/17 03:10:59;;;;;;;22.75;17.35;;;;;;;10.50;74.63;99515.39;1373075;84;81848;-71
2022/07/17 03:13:00;;;;;;;;;;;;;;;10.52;74.66;99514.85;1373835;85;21011;-71
2022/07/17 03:15:01;;;;;;;29.25;19.23;;;;;;;10.53;74.77;99517.90;1361976;85;67846;-73
2022/07/17 03:17:02;;;;;;;;;;;;;;;10.50;74.76;99512.75;1379453;84;20997;-73
2022/07/17 03:19:03;;;;;;;30.48;19.32;;;;;;;10.49;74.86;99519.78;1375088;84;20475;-72
2022/07/17 03:21:04;;;;;;;;;;;;;;;10.49;74.86;99517.62;1375865;84;81943;-72
2022/07/17 03:23:05;;;;;;;27.17;18.65;;;;;;;10.50;74.96;99527.25;1380509;84;20151;-71
2022/07/17 03:25:08;;;;;;;38.42;20.92;;;;;;;10.52;74.93;99528.03;1378241;82;81142;-71
2022/07/17 03:27:09;;;;;;;28.80;20.92;;;;;;;10.53;74.91;99532.39;1378434;84;21097;-72
2022/07/17 03:29:10;;;;;;;;;;;;;;;10.54;74.93;99526.21;1380048;83;21158;-72
2022/07/17 03:31:11;;;;;;;31.23;20.35;;;;;;;10.55;75.06;99538.48;1376243;84;67191;-71
2022/07/17 03:33:12;;;;;;;;;;;;;;;10.54;75.03;99534.97;1378051;84;21049;-72
2022/07/17 03:35:13;;;;;;;28.05;19.90;;;;;;;10.55;75.09;99537.16;1376070;84;67363;-72
2022/07/17 03:37:14;;;;;;;;;;;;;;;10.53;75.10;99536.34;1377978;82;21037;-71
2022/07/17 03:39:16;;;;;;;30.95;19.20;;;;;;;10.54;75.17;99540.23;1379938;84;20598;-71
2022/07/17 03:41:16;;;;;;;;;;;;;;;10.53;75.15;99539.83;1378007;83;82176;-71
2022/07/17 03:43:18;;;;;;;28.27;20.08;;;;;;;10.55;75.24;99546.39;1378432;82;20139;-72
2022/07/17 03:45:18;;;;;;;;;;;;;;;10.56;75.23;99544.13;1376258;84;82173;-71
2022/07/17 03:47:20;;;;;;;33.73;21.25;;;;;;;10.57;75.29;99547.17;1380458;83;20183;-72
2022/07/17 03:49:21;;;;;;;32.48;20.35;;;;;;;10.59;75.24;99553.70;1377856;84;21030;-72
2022/07/17 03:51:22;;;;;;;30.00;20.05;;;;;;;10.61;75.24;99548.77;1374946;84;81723;-72
2022/07/17 03:53:23;;;;;;;;;;;;;;;10.55;75.18;99537.16;1382807;84;21057;-72
2022/07/17 03:55:25;;;;;;;29.67;19.12;;;;;;;10.63;75.27;99552.66;1376286;83;67219;-72
2022/07/17 03:57:26;;;;;;;27.93;18.95;;;;;;;10.64;75.21;99554.39;1378773;84;21267;-71
2022/07/17 03:59:27;;;;;;;28.95;18.77;;;;;;;10.65;75.17;99553.00;1378786;84;21021;-72
2022/07/17 04:01:29;;;;;;;32.15;20.20;;;;;;;10.67;75.17;99548.98;1374539;84;80996;-71
2022/07/17 04:03:29;;;;;;;;;;;;;;;10.67;75.11;99554.26;1382228;84;22255;-71
2022/07/17 04:05:30;;;;;;;25.65;18.05;;;;;;;10.67;75.20;99558.21;1375994;83;67906;-71
2022/07/17 04:07:31;;;;;;;30.90;18.65;;;;;;;10.67;75.18;99560.38;1381416;83;21064;-71
2022/07/17 04:09:32;;;;;;;;;;;;;;;10.67;75.12;99557.74;1382356;84;21608;-72
2022/07/17 04:11:33;;;;;;;30.10;17.95;;;;;;;10.69;75.24;99565.62;1374652;83;66997;-71
2022/07/17 04:13:34;;;;;;;;;;;;;;;10.69;75.21;99569.10;1379361;83;21679;-71
2022/07/17 04:17:55;;;;;;;26.55;18.02;;;;;;;10.73;75.26;99567.22;1377817;83;21490;-71
2022/07/17 04:19:58;;;;;;;29.65;17.87;;;;;;;10.78;75.28;99568.34;1375198;84;81104;-71
2022/07/17 04:22:00;;;;;;;27.85;17.07;;;;;;;10.81;75.26;99566.89;1376066;84;21351;-71
2022/07/17 04:24:01;;;;;;;28.35;16.02;;;;;;;10.84;75.29;99564.13;1375514;83;21046;-72
2022/07/17 04:26:03;;;;;;;26.20;16.75;;;;;;;10.89;75.33;99572.25;1380815;84;81240;-71
2022/07/17 04:28:04;;;;;;;24.95;15.48;;;;;;;10.94;75.31;99569.89;1377779;83;21092;-71
2022/07/17 04:30:06;;;;;;;25.77;15.70;;;;;;;10.99;75.34;99576.70;1376719;83;81786;-71
2022/07/17 04:32:08;;;;;;;22.80;15.78;;;;;;;11.05;75.39;99572.98;1375243;84;21097;-71
2022/07/17 04:34:09;;;;;;;19.25;14.53;;;;;;;11.12;75.37;99571.80;1375353;83;21013;-72
2022/07/17 04:36:10;;;;;;;24.72;14.43;;;;;;;11.19;75.38;99577.22;1374097;84;81973;-72
2022/07/17 04:38:11;;;;;;;27.95;15.15;;;;;;;11.26;75.38;99580.47;1377185;84;21052;-72
2022/07/17 04:40:12;;;;;;;20.65;14.98;;;;;;;11.32;75.35;99570.96;1376759;83;81906;-71
2022/07/17 04:42:13;;;;;;;24.82;14.38;;;;;;;11.39;75.34;99577.73;1380752;84;21085;-72
2022/07/17 04:44:14;;;;;;;;;;;;;;;11.46;75.36;99586.22;1377512;84;21099;-71
2022/07/17 04:46:15;;;;;;;24.32;13.18;;;;;;;11.54;75.40;99584.59;1377449;83;67942;-71
2022/07/17 04:48:16;;;;;;;19.35;12.30;;;;;;;11.59;75.33;99579.50;1375121;84;21028;-72
2022/07/17 04:50:18;;;;;;;17.23;11.80;;;;;;;11.66;75.32;99589.34;1372658;84;81897;-71
2022/07/17 04:52:19;;;;;;;20.62;11.33;;;;;;;11.71;75.22;99582.09;1375728;83;21025;-71
2022/07/17 04:54:20;;;;;;;15.25;10.80;;;;;;;11.76;75.21;99588.02;1378279;83;21033;-72
2022/07/17 04:56:22;;;;;;;18.60;10.03;;;;;;;11.82;75.20;99592.64;1370237;85;82130;-72
2022/07/17 04:58:22;;;;;;;;;;;;;;;11.88;75.12;99587.08;1380877;84;21040;-71
2022/07/17 05:00:24;;;;;;;13.78;10.45;;;;;;;11.94;75.17;99597.42;1374920;84;67354;-72
2022/07/17 05:02:25;;;;;;;11.48;8.83;;;;;;;11.97;75.09;99597.28;1378145;84;21057;-71
2022/07/17 05:04:26;;;;;;;14.18;8.80;;;;;;;12.02;75.03;99590.50;1379108;84;21064;-72
2022/07/17 05:06:27;;;;;;;15.55;8.05;;;;;;;12.08;75.00;99593.70;1376304;84;81845;-72
2022/07/17 05:08:28;;;;;;;13.68;8.20;;;;;;;12.13;74.96;99597.92;1378181;83;21228;-71
2022/07/17 05:10:28;;;;;;;;;;;;;;;12.17;74.87;99597.73;1359135;84;80858;-72
2022/07/17 05:12:30;;;;;;;15.30;8.20;;;;;;;12.23;74.93;99596.13;1377543;84;20156;-72
2022/07/17 05:14:31;;;;;;;8.40;7.30;;;;;;;12.29;74.94;99598.10;1378937;83;21093;-72
2022/07/17 05:16:32;;;;;;;8.83;7.45;;;;;;;12.34;74.83;99594.32;1375507;83;80467;-71
2022/07/17 05:18:33;;;;;;;;;;;;;;;12.37;74.71;99590.20;1377800;84;21065;-72
2022/07/17 05:20:34;;;;;;;11.53;7.25;;;;;;;12.44;74.77;99590.79;1377963;84;67262;-72
2022/07/17 05:22:35;;;;;;;9.50;6.65;;;;;;;12.50;74.77;99596.25;1353350;85;21516;-72
2022/07/17 05:24:36;;;;;;;;;;;;;;;12.56;74.73;99598.16;1359245;85;81128;-72
2022/07/17 05:26:37;;;;;;;10.15;6.90;;;;;;;12.63;74.69;99600.50;1377062;84;20123;-72
2022/07/17 05:28:38;;;;;;;11.60;6.55;;;;;;;12.68;74.68;99607.31;1379861;84;21088;-71
2022/07/17 05:30:39;;;;;;;8.13;5.97;;;;;;;12.74;74.64;99604.37;1375163;84;81731;-72
2022/07/17 05:32:40;;;;;;;;;;;;;;;12.81;74.53;99602.74;1381704;84;21002;-72
2022/07/17 05:34:41;;;;;;;9.80;5.83;;;;;;;12.87;74.55;99598.50;1375257;83;68358;-72
2022/07/17 05:36:41;;;;;;;;;;;;;;;12.93;74.40;99603.48;1360163;85;21126;-71
2022/07/17 05:38:42;;;;;;;12.05;5.78;;;;;;;12.97;74.39;99609.02;1376002;84;20296;-72
2022/07/17 05:40:43;;;;;;;11.80;6.65;;;;;;;13.00;74.33;99608.90;1375927;83;82325;-72
2022/07/17 05:42:44;;;;;;;;;;;;;;;13.07;74.23;99608.11;1363606;85;21682;-73
2022/07/17 05:44:45;;;;;;;11.88;5.37;;;;;;;13.11;74.26;99608.35;1377601;83;67364;-73
2022/07/17 05:46:46;;;;;;;6.90;5.42;;;;;;;13.18;74.22;99612.89;1376130;84;21081;-72
2022/07/17 05:48:47;;;;;;;12.98;5.65;;;;;;;13.24;74.10;99612.61;1357200;85;21310;-72
2022/07/17 05:50:48;;;;;;;17.00;5.90;;;;;;;13.27;74.00;99606.67;1356600;85;81725;-72
2022/07/17 05:52:49;;;;;;;;;;;;;;;13.33;73.93;99612.13;1364809;85;21064;-72
2022/07/17 05:54:51;;;;;;;16.20;5.00;;;;;;;13.38;73.95;99613.28;1375329;84;67431;-72
2022/07/17 05:56:52;;;;;;;;;;;;;;;13.43;73.92;99615.21;1382456;84;21524;-72
2022/07/17 05:58:53;;;;;;;10.58;5.55;;;;;;;13.49;73.83;99608.30;1381985;84;20151;-72
2022/07/17 06:00:54;;;;;;;;;;;;;;;13.55;73.78;99611.11;1361830;85;81655;-72
2022/07/17 06:02:55;;;;;;;9.15;5.80;;;;;;;13.62;73.69;99613.83;1378907;82;20435;-72
2022/07/17 06:04:56;;;;;;;13.20;4.92;;;;;;;13.66;73.62;99613.22;1357455;84;81772;-73
2022/07/17 06:06:57;;;;;;;7.87;5.42;;;;;;;13.70;73.56;99616.95;1376434;84;21128;-73
2022/07/17 06:08:58;;;;;;;7.83;5.12;;;;;;;13.79;73.56;99623.59;1381260;84;21081;-73
2022/07/17 06:10:59;;;;;;;;;;;;;;;13.85;73.44;99623.74;1381314;83;81460;-73
2022/07/17 06:13:00;;;;;;;13.28;5.37;;;;;;;13.92;73.42;99623.80;1377118;84;20181;-73
2022/07/17 06:15:00;;;;;;;;;;;;;;;13.98;73.40;99627.45;1381851;84;80996;-72
2022/07/17 06:17:02;;;;;;;14.30;4.95;;;;;;;14.05;73.40;99632.84;1376711;84;20174;-73
2022/07/17 06:19:02;;;;;;;;;;;;;;;14.11;73.23;99627.69;1379483;84;21619;-72
2022/07/17 06:21:04;;;;;;;8.10;4.35;;;;;;;14.18;73.17;99629.52;1376442;83;67375;-73
2022/07/17 06:23:05;;;;;;;10.48;4.58;;;;;;;14.23;72.99;99631.47;1381679;82;22295;-73
2022/07/17 06:25:06;;;;;;;;;;;;;;;14.28;73.05;99632.94;1361585;85;80909;-74
2022/07/17 06:27:07;;;;;;;16.95;4.40;;;;;;;14.40;73.12;99639.40;1376409;84;20118;-72
2022/07/17 06:29:09;;;;;;;9.08;4.60;;;;;;;14.50;73.05;99646.88;1377664;84;21060;-73
2022/07/17 06:31:10;;;;;;;14.45;4.72;;;;;;;14.59;72.92;99643.70;1376578;84;80818;-72
2022/07/17 06:33:11;;;;;;;;;;;;;;;14.66;72.78;99642.94;1381217;82;21350;-72
2022/07/17 06:35:12;;;;;;;15.50;4.30;;;;;;;14.72;72.64;99642.63;1377238;84;67936;-73
2022/07/17 06:37:14;;;;;;;5.70;4.08;;;;;;;14.78;72.67;99641.78;1379612;84;21282;-73
2022/07/17 06:39:14;;;;;;;;;;;;;;;14.86;72.48;99645.36;1382679;83;21041;-72
2022/07/17 06:41:16;;;;;;;15.45;4.00;;;;;;;14.93;72.44;99649.38;1373777;84;67909;-74
2022/07/17 06:43:16;;;;;;;;;;;;;;;15.00;72.37;99647.25;1380892;84;21028;-73
2022/07/17 06:45:18;;;;;;;16.05;3.72;;;;;;;15.08;72.23;99641.04;1381408;82;67390;-73
2022/07/17 06:47:18;;;;;;;;;;;;;;;15.12;72.07;99644.39;1380763;84;21065;-72
2022/07/17 06:49:20;;;;;;;10.90;4.10;;;;;;;15.21;72.16;99649.64;1381692;84;20173;-73
2022/07/17 06:51:20;;;;;;;;;;;;;;;15.26;72.12;99646.27;1364181;85;80895;-72
2022/07/17 06:53:21;;;;;;;11.78;3.52;;;;;;;15.35;72.05;99641.73;1377889;84;20169;-72
2022/07/17 06:55:22;;;;;;;;;;;;;;;15.42;71.82;99643.08;1379018;84;81845;-72
2022/07/17 06:57:23;;;;;;;16.40;3.42;;;;;;;15.46;71.65;99648.60;1381917;84;20354;-73
2022/07/17 06:59:24;;;;;;;;;;;;;;;15.51;71.71;99635.08;1381143;84;21091;-72
2022/07/17 07:01:25;;;;;;;10.88;3.60;;;;;;;15.58;71.69;99643.55;1378583;84;67097;-72
2022/07/17 07:03:26;;;;;;;;;;;;;;;15.64;71.53;99643.17;1385235;84;21039;-73
2022/07/17 07:05:27;;;;;;;10.15;3.40;;;;;;;15.69;71.52;99642.44;1378835;84;67239;-73
2022/07/17 07:07:27;;;;;;;;;;;;;;;15.77;71.56;99645.50;1364159;85;21607;-72
2022/07/17 07:09:30;;;;;;;14.20;3.45;;;;;;;15.83;71.35;99641.17;1379491;84;20150;-72
2022/07/17 07:11:32;;;;;;;9.13;3.37;;;;;;;15.89;71.33;99642.61;1375411;84;81564;-73
2022/07/17 07:13:33;;;;;;;18.20;3.72;;;;;;;15.94;71.14;99638.36;1364366;85;21001;-73
2022/07/17 07:15:34;;;;;;;;;;;;;;;15.99;71.17;99644.23;1379749;84;81047;-72
2022/07/17 07:17:36;;;;;;;9.65;3.52;;;;;;;16.07;71.09;99643.30;1374536;82;20137;-73
2022/07/17 07:19:37;;;;;;;11.78;3.60;;;;;;;16.14;70.89;99652.65;1377192;84;80779;-71
2022/07/17 07:21:38;;;;;;;5.00;3.15;;;;;;;16.20;70.88;99649.22;1379769;84;20992;-72
2022/07/17 07:23:38;;;;;;;;;;;;;;;16.28;70.89;99648.27;1351285;86;22291;-74
2022/07/17 07:25:39;;;;;;;10.78;3.15;;;;;;;16.36;70.65;99647.81;1361046;84;67259;-73
2022/07/17 07:27:40;;;;;;;;;;;;;;;16.40;70.60;99648.01;1384126;84;21105;-72
2022/07/17 07:29:41;;;;;;;6.17;3.05;;;;;;;16.46;70.44;99649.82;1377828;84;68509;-72
2022/07/17 07:31:42;;;;;;;;;;;;;;;16.50;70.30;99651.34;1382146;84;22212;-72
2022/07/17 07:33:44;;;;;;;14.85;2.87;;;;;;;16.55;70.15;99652.86;1382494;84;20283;-72
2022/07/17 07:35:45;;;;;;;9.43;3.22;;;;;;;16.55;70.15;99652.86;1372668;82;80961;-72
2022/07/17 07:37:46;;;;;;;9.65;2.58;;;;;;;16.57;70.01;99650.45;1381629;84;21013;-74
2022/07/17 07:39:47;;;;;;;;;;;;;;;16.60;69.99;99638.77;1379142;84;80914;-73
2022/07/17 07:41:48;;;;;;;8.18;2.30;;;;;;;16.67;69.84;99641.45;1378725;84;20211;-72
2022/07/17 07:43:49;;;;;;;;;;;;;;;16.72;69.91;99643.33;1367841;85;21044;-73
2022/07/17 07:45:50;;;;;;;10.30;4.62;;;;;;;16.76;69.66;99647.50;1376107;84;67938;-73
2022/07/17 07:47:51;;;;;;;7.33;2.50;;;;;;;16.76;69.53;99652.83;1377171;84;21145;-72
2022/07/17 07:49:52;;;;;;;4.65;2.42;;;;;;;16.79;69.56;99645.97;1378060;84;81684;-73
2022/07/17 07:51:53;;;;;;;12.35;2.40;;;;;;;16.87;69.58;99644.66;1377523;84;21034;-73
2022/07/17 07:53:55;;;;;;;5.78;2.40;;;;;;;16.92;69.51;99645.23;1377221;84;21089;-74
2022/07/17 07:55:56;;;;;;;4.42;2.00;;;;;;;16.99;69.13;99653.23;1382161;84;80483;-72
2022/07/17 07:58:09;;;;;;;3.27;2.02;;;;;;;17.05;68.92;99652.81;1382470;83;21572;-72
2022/07/17 08:00:11;;;;;;;13.55;2.75;;;;;;;17.08;68.91;99655.28;1376803;84;80782;-72
2022/07/17 08:02:12;;;;;;;4.83;2.05;;;;;;;17.13;68.82;99651.01;1379271;84;21561;-72
2022/07/17 08:04:14;;;;;;;15.13;2.52;;;;;;;17.21;68.76;99663.81;1380876;84;21053;-72
2022/07/17 08:06:15;;;;;;;2.40;1.32;;;;;;;17.26;68.74;99664.38;1377826;84;81771;-73
2022/07/17 08:08:16;;;;;;;2.55;1.35;;;;;;;17.38;68.50;99650.25;1377520;84;21556;-73
2022/07/17 08:10:17;;;;;;;6.22;2.85;;;;;;;17.49;68.11;99656.22;1378753;84;81659;-73
2022/07/17 08:12:18;;;;;;;10.18;2.35;;;;;;;17.61;68.20;99661.19;1361367;84;21527;-73
2022/07/17 08:14:19;;;;;;;4.22;1.62;;;;;;;17.69;68.08;99660.20;1379150;84;21017;-74
2022/07/17 08:16:20;;;;;;;5.60;1.62;;;;;;;17.70;67.67;99664.09;1379031;84;81466;-73
2022/07/17 08:18:21;;;;;;;;;;;;;;;17.67;66.87;99667.47;1384484;84;21065;-73
2022/07/17 08:20:22;;;;;;;2.83;1.35;;;;;;;17.62;66.22;99668.24;1380458;84;67284;-73
2022/07/17 08:22:23;;;;;;;6.12;1.80;;;;;;;17.64;66.09;99672.98;1381727;85;21061;-73
2022/07/17 08:24:24;;;;;;;3.55;1.42;;;;;;;17.69;65.70;99666.88;1381674;84;21128;-73
2022/07/17 08:26:25;;;;;;;4.03;2.40;;;;;;;17.78;64.68;99668.93;1358981;85;80798;-73
2022/07/17 08:28:26;;;;;;;;;;;;;;;17.85;64.02;99672.05;1380380;84;21040;-73
2022/07/17 08:30:27;;;;;;;2.67;1.32;;;;;;;17.91;64.64;99678.77;1377678;84;67403;-74
2022/07/17 08:32:28;;;;;;;4.85;1.47;;;;;;;17.63;64.70;99629.97;1378938;84;21063;-73
2022/07/17 08:34:29;;;;;;;2.70;1.50;;;;;;;18.01;64.73;99677.21;1378265;84;21596;-74
2022/07/17 08:36:30;;;;;;;2.52;1.32;;;;;;;18.10;63.98;99676.59;1372859;84;80621;-73
2022/07/17 08:38:31;;;;;;;2.85;1.70;;;;;;;18.24;63.59;99676.14;1379014;84;21077;-74
2022/07/17 08:40:35;;;;;;;6.05;2.00;;;;;;;18.38;63.85;99676.86;1379561;84;82075;-73
2022/07/17 08:42:42;;;;;;;4.17;1.60;;;;;;;18.55;63.55;99677.05;1381536;84;21532;-73
2022/07/17 08:44:39;;;;;;;7.53;1.87;;;;;;;18.67;63.24;99679.80;1359508;85;81895;-73
2022/07/17 08:46:40;;;;;;;3.85;1.45;;;;;;;18.80;63.64;99683.33;1380559;84;21069;-73
2022/07/17 08:48:42;;;;;;;4.97;1.70;;;;;;;18.88;63.27;99688.13;1377354;84;21076;-73
2022/07/17 08:50:43;;;;;;;6.03;1.42;;;;;;;18.97;62.96;99679.93;1375463;82;81742;-74
2022/07/17 08:52:46;;;;;;;7.22;1.25;;;;;;;19.08;62.72;99684.05;1377796;84;21020;-73
2022/07/17 08:54:47;;;;;;;1.70;1.17;;;;;;;19.12;62.25;99687.33;1358834;85;90439;-74
2022/07/17 08:56:48;;;;;;;4.87;1.60;;;;;;;19.08;61.76;99682.70;1396931;83;21048;-73
2022/07/17 08:58:50;;;;;;;2.27;1.37;;;;;;;19.17;62.51;99683.35;1399338;83;21060;-73
2022/07/17 09:00:51;;;;;;;2.02;1.00;;;;;;;19.34;61.98;99678.59;1398146;83;80797;-73
2022/07/17 09:03:03;;;;;;;5.65;1.80;;;;;;;19.48;61.77;99680.25;1378156;83;21088;-73
2022/07/17 09:05:07;;;;;;;2.65;0.75;;;;;;;19.53;61.75;99682.95;1376381;84;81482;-72
2022/07/17 09:07:08;;;;;;;2.12;1.12;;;;;;;19.47;60.05;99679.41;1374191;84;21265;-73
2022/07/17 09:09:12;;;;;;;2.02;0.70;;;;;;;19.42;60.37;99688.73;1377232;84;21127;-73
2022/07/17 09:11:13;;;;;;;7.20;0.88;;;;;;;19.35;60.20;99690.51;1375423;84;81991;-73
2022/07/17 09:13:21;;;;;;;0.90;0.78;;;;;;;19.38;60.62;99690.77;1371568;84;21043;-73
2022/07/17 09:15:22;;;;;;;1.07;0.60;;;;;;;19.53;59.41;99686.12;1372377;84;81472;-73
2022/07/17 09:17:26;;;;;;;3.62;0.70;;;;;;;19.68;59.72;99684.12;1373756;84;21141;-73
2022/07/17 09:19:32;;;;;;;1.22;0.82;;;;;;;19.74;59.05;99691.67;1381215;84;21036;-72
2022/07/17 09:21:33;;;;;;;5.40;1.10;;;;;;;19.83;59.77;99692.36;1374914;83;81801;-73
2022/07/17 09:23:35;;;;;;;2.80;1.15;;;;;;;19.93;58.66;99686.33;1378470;84;21106;-73
2022/07/17 09:25:44;;;;;;;4.42;0.95;;;;;;;19.89;58.70;99685.20;1371238;84;80908;-73
2022/07/17 09:27:45;;;;;;;3.95;0.82;;;;;;;19.83;59.35;99688.35;1375918;84;21039;-71
2022/07/17 09:29:57;;;;;;;3.08;1.12;;;;;;;19.74;58.99;99689.00;1376296;83;81672;-72
2022/07/17 09:31:58;;;;;;;1.47;0.78;;;;;;;19.67;59.36;99689.09;1352321;86;21020;-73
2022/07/17 09:34:00;;;;;;;2.22;1.35;;;;;;;19.74;58.99;99686.33;1373495;84;21581;-73
2022/07/17 09:36:10;;;;;;;2.42;0.88;;;;;;;19.83;59.13;99690.19;1374545;84;81581;-74
2022/07/17 09:38:14;;;;;;;1.05;0.85;;;;;;;19.93;58.37;99682.31;1362623;86;21047;-73